createdAt,value
2017-06-13T00:01:19.395Z,13.00
2017-06-13T00:03:46.832Z,12.90
2017-06-13T00:06:14.289Z,12.70
2017-06-13T00:08:41.762Z,12.60
2017-06-13T00:11:09.205Z,12.60
2017-06-13T00:13:36.662Z,12.60
2017-06-13T00:16:04.109Z,12.60
2017-06-13T00:18:31.575Z,12.50
2017-06-13T00:20:59.022Z,12.50
2017-06-13T00:23:26.481Z,12.50
2017-06-13T00:25:53.933Z,12.40
2017-06-13T00:28:21.393Z,12.40
2017-06-13T00:30:48.861Z,12.40
2017-06-13T00:33:16.334Z,12.40
2017-06-13T00:35:43.774Z,12.30
2017-06-13T00:38:11.232Z,12.30
2017-06-13T00:40:38.681Z,12.30
2017-06-13T00:43:06.156Z,12.20
2017-06-13T00:45:33.606Z,12.20
2017-06-13T00:48:01.070Z,12.00
2017-06-13T00:50:28.527Z,12.00
2017-06-13T00:52:55.980Z,12.00
2017-06-13T00:55:23.434Z,12.00
2017-06-13T00:57:50.890Z,12.10
2017-06-13T01:00:18.349Z,12.20
2017-06-13T01:02:45.813Z,12.20
2017-06-13T01:05:13.553Z,12.20
2017-06-13T01:07:41.006Z,12.30
2017-06-13T01:10:08.464Z,12.40
2017-06-13T01:12:35.909Z,12.40
2017-06-13T01:15:03.376Z,12.50
2017-06-13T01:17:30.814Z,12.50
2017-06-13T01:19:58.269Z,12.60
2017-06-13T01:22:25.720Z,12.60
2017-06-13T01:24:53.181Z,12.60
2017-06-13T01:27:20.641Z,12.60
2017-06-13T01:29:48.105Z,12.70
2017-06-13T01:32:15.541Z,12.70
2017-06-13T01:34:42.997Z,12.80
2017-06-13T01:37:10.441Z,12.70
2017-06-13T01:39:38.673Z,12.60
2017-06-13T01:42:06.125Z,12.60
2017-06-13T01:44:33.604Z,12.60
2017-06-13T01:47:01.051Z,12.60
2017-06-13T01:49:28.507Z,12.60
2017-06-13T01:51:55.953Z,12.60
2017-06-13T01:54:23.418Z,12.50
2017-06-13T01:56:50.861Z,12.50
2017-06-13T01:59:18.328Z,12.50
2017-06-13T02:01:45.781Z,12.50
2017-06-13T02:04:13.245Z,12.30
2017-06-13T02:06:40.688Z,12.20
2017-06-13T02:09:08.149Z,12.00
2017-06-13T02:11:35.593Z,11.90
2017-06-13T02:14:03.065Z,11.70
2017-06-13T02:16:30.517Z,11.60
2017-06-13T02:18:57.978Z,11.50
2017-06-13T02:21:26.433Z,11.40
2017-06-13T02:23:53.894Z,11.30
2017-06-13T02:26:21.432Z,11.20
2017-06-13T02:28:49.656Z,11.10
2017-06-13T02:31:17.110Z,11.10
2017-06-13T02:33:44.558Z,11.20
2017-06-13T02:36:12.015Z,11.30
2017-06-13T02:38:39.478Z,11.40
2017-06-13T02:41:06.934Z,11.40
2017-06-13T02:43:34.394Z,11.40
2017-06-13T02:46:01.856Z,11.40
2017-06-13T02:48:29.312Z,11.50
2017-06-13T02:50:56.769Z,11.50
2017-06-13T02:53:24.214Z,11.40
2017-06-13T02:55:51.669Z,11.40
2017-06-13T02:58:19.131Z,11.20
2017-06-13T03:00:46.584Z,11.10
2017-06-13T03:03:14.049Z,11.10
2017-06-13T03:05:41.505Z,11.10
2017-06-13T03:08:08.958Z,11.20
2017-06-13T03:10:36.413Z,11.20
2017-06-13T03:13:03.856Z,11.10
2017-06-13T03:15:31.318Z,11.10
2017-06-13T03:17:58.768Z,11.10
2017-06-13T03:20:26.220Z,11.10
2017-06-13T03:22:53.677Z,11.10
2017-06-13T03:25:21.133Z,11.00
2017-06-13T03:27:48.577Z,11.00
2017-06-13T03:30:16.809Z,11.00
2017-06-13T03:32:44.255Z,10.90
2017-06-13T03:35:11.725Z,10.70
2017-06-13T03:37:39.189Z,10.50
2017-06-13T03:40:06.662Z,10.50
2017-06-13T03:42:34.116Z,10.40
2017-06-13T03:45:01.573Z,10.40
2017-06-13T03:47:29.029Z,10.50
2017-06-13T03:49:56.484Z,10.60
2017-06-13T03:52:23.929Z,10.70
2017-06-13T03:54:51.381Z,10.70
2017-06-13T03:57:18.841Z,10.80
2017-06-13T03:59:46.289Z,10.90
2017-06-13T04:02:14.564Z,10.90
2017-06-13T04:04:42.015Z,10.80
2017-06-13T04:07:09.487Z,10.70
2017-06-13T04:09:36.933Z,10.80
2017-06-13T04:12:04.401Z,10.90
2017-06-13T04:14:31.844Z,11.10
2017-06-13T04:16:59.309Z,11.30
2017-06-13T04:19:26.765Z,11.50
2017-06-13T04:21:54.230Z,11.70
2017-06-13T04:24:21.677Z,11.90
2017-06-13T04:26:49.137Z,12.20
2017-06-13T04:29:16.590Z,12.50
2017-06-13T04:31:51.754Z,12.70
2017-06-13T04:34:19.208Z,12.80
2017-06-13T04:36:46.673Z,12.70
2017-06-13T04:39:14.122Z,12.60
2017-06-13T04:41:41.595Z,12.60
2017-06-13T04:44:09.805Z,13.00
2017-06-13T04:46:37.269Z,12.90
2017-06-13T04:49:04.725Z,13.20
2017-06-13T04:51:32.197Z,13.40
2017-06-13T04:53:59.641Z,13.70
2017-06-13T04:56:27.097Z,13.90
2017-06-13T04:58:54.553Z,14.00
2017-06-13T05:01:22.014Z,14.20
2017-06-13T05:03:49.479Z,14.30
2017-06-13T05:06:16.948Z,14.90
2017-06-13T05:08:44.384Z,15.30
2017-06-13T05:11:11.840Z,15.60
2017-06-13T05:13:39.297Z,15.90
2017-06-13T05:16:06.741Z,16.30
2017-06-13T05:18:34.209Z,16.60
2017-06-13T05:21:01.666Z,17.00
2017-06-13T05:23:29.126Z,17.20
2017-06-13T05:25:56.580Z,17.20
2017-06-13T05:28:24.039Z,17.30
2017-06-13T05:30:51.500Z,17.50
2017-06-13T05:33:18.976Z,17.80
2017-06-13T05:35:46.429Z,18.00
2017-06-13T05:38:13.894Z,17.80
2017-06-13T05:40:41.345Z,17.90
2017-06-13T05:43:08.806Z,18.00
2017-06-13T05:45:36.252Z,18.20
2017-06-13T05:48:03.713Z,18.30
2017-06-13T05:50:31.157Z,18.50
2017-06-13T05:52:58.620Z,18.50
2017-06-13T05:55:26.062Z,18.70
2017-06-13T05:57:53.522Z,19.00
2017-06-13T06:00:20.971Z,19.20
2017-06-13T06:02:48.433Z,19.20
2017-06-13T06:05:15.890Z,19.10
2017-06-13T06:07:43.374Z,19.10
2017-06-13T06:10:10.834Z,19.10
2017-06-13T06:12:39.082Z,19.50
2017-06-13T06:15:06.539Z,19.50
2017-06-13T06:17:33.993Z,19.60
2017-06-13T06:20:01.454Z,19.70
2017-06-13T06:22:28.912Z,19.90
2017-06-13T06:24:56.390Z,20.40
2017-06-13T06:27:23.829Z,20.60
2017-06-13T06:29:51.298Z,20.40
2017-06-13T06:32:18.742Z,20.40
2017-06-13T06:34:46.209Z,20.40
2017-06-13T06:37:13.657Z,20.40
2017-06-13T06:39:41.124Z,20.60
2017-06-13T06:42:08.565Z,21.10
2017-06-13T06:44:36.030Z,21.80
2017-06-13T06:47:03.477Z,22.30
2017-06-13T06:49:30.934Z,22.50
2017-06-13T06:51:58.392Z,22.40
2017-06-13T06:54:25.859Z,22.50
2017-06-13T06:56:53.304Z,22.60
2017-06-13T06:59:20.749Z,22.40
2017-06-13T07:01:48.205Z,22.10
2017-06-13T07:04:15.654Z,22.20
2017-06-13T07:06:43.111Z,22.70
2017-06-13T07:09:10.557Z,23.20
2017-06-13T07:11:38.867Z,23.60
2017-06-13T07:14:06.301Z,23.60
2017-06-13T07:16:33.764Z,24.00
2017-06-13T07:19:01.217Z,24.10
2017-06-13T07:21:28.682Z,24.20
2017-06-13T07:23:56.142Z,24.20
2017-06-13T07:26:23.589Z,23.90
2017-06-13T07:28:51.054Z,23.80
2017-06-13T07:31:18.501Z,23.50
2017-06-13T07:33:45.981Z,23.40
2017-06-13T07:36:13.437Z,23.60
2017-06-13T07:38:40.922Z,24.10
2017-06-13T07:41:08.372Z,24.50
2017-06-13T07:43:35.833Z,23.80
2017-06-13T07:46:03.289Z,22.90
2017-06-13T07:48:30.739Z,22.60
2017-06-13T07:50:58.201Z,22.80
2017-06-13T07:53:25.657Z,23.30
2017-06-13T07:55:53.126Z,24.00
2017-06-13T07:58:20.578Z,24.90
2017-06-13T08:00:48.039Z,24.90
2017-06-13T08:03:15.486Z,25.00
2017-06-13T08:05:42.942Z,25.10
2017-06-13T08:08:10.397Z,24.90
2017-06-13T08:10:37.862Z,24.80
2017-06-13T08:13:05.307Z,24.80
2017-06-13T08:15:32.774Z,24.90
2017-06-13T08:18:00.229Z,25.20
2017-06-13T08:20:27.685Z,25.40
2017-06-13T08:22:55.143Z,25.50
2017-06-13T08:25:22.594Z,25.50
2017-06-13T08:27:50.054Z,25.30
2017-06-13T08:30:17.513Z,24.80
2017-06-13T08:32:44.983Z,24.20
2017-06-13T08:35:12.433Z,24.10
2017-06-13T08:37:39.898Z,24.40
2017-06-13T08:40:07.362Z,24.80
2017-06-13T08:42:34.816Z,25.20
2017-06-13T08:45:02.266Z,25.40
2017-06-13T08:47:29.729Z,25.60
2017-06-13T08:49:57.184Z,25.50
2017-06-13T08:52:24.658Z,25.00
2017-06-13T08:54:52.114Z,25.20
2017-06-13T08:57:20.338Z,26.10
2017-06-13T08:59:47.803Z,26.10
2017-06-13T09:02:15.277Z,26.60
2017-06-13T09:04:42.730Z,26.80
2017-06-13T09:07:10.182Z,26.00
2017-06-13T09:09:37.634Z,26.30
2017-06-13T09:12:05.103Z,27.00
2017-06-13T09:14:32.562Z,27.70
2017-06-13T09:17:00.019Z,28.00
2017-06-13T09:19:27.490Z,28.10
2017-06-13T09:21:54.956Z,28.30
2017-06-13T09:24:22.415Z,28.50
2017-06-13T09:26:50.637Z,27.50
2017-06-13T09:29:18.101Z,27.50
2017-06-13T09:31:45.541Z,27.40
2017-06-13T09:34:13.007Z,28.00
2017-06-13T09:36:40.469Z,28.60
2017-06-13T09:39:07.945Z,28.10
2017-06-13T09:41:35.393Z,27.60
2017-06-13T09:44:02.847Z,27.50
2017-06-13T09:46:30.317Z,27.80
2017-06-13T09:48:57.775Z,27.90
2017-06-13T09:51:25.233Z,28.60
2017-06-13T09:53:52.678Z,29.80
2017-06-13T09:56:20.150Z,30.40
2017-06-13T09:58:47.605Z,30.40
2017-06-13T10:01:15.074Z,30.20
2017-06-13T10:03:42.533Z,29.60
2017-06-13T10:06:09.988Z,29.00
2017-06-13T10:08:37.459Z,28.30
2017-06-13T10:11:04.901Z,27.30
2017-06-13T10:13:32.365Z,26.50
2017-06-13T10:15:59.812Z,26.60
2017-06-13T10:18:27.282Z,26.70
2017-06-13T10:20:54.724Z,26.80
2017-06-13T10:23:22.197Z,26.90
2017-06-13T10:25:50.429Z,25.60
2017-06-13T10:28:17.878Z,25.60
2017-06-13T10:30:45.340Z,24.90
2017-06-13T10:33:12.781Z,24.50
2017-06-13T10:35:40.249Z,24.70
2017-06-13T10:38:07.698Z,25.50
2017-06-13T10:40:35.165Z,25.30
2017-06-13T10:43:02.622Z,25.20
2017-06-13T10:45:30.089Z,25.60
2017-06-13T10:47:57.544Z,25.90
2017-06-13T10:50:25.011Z,26.10
2017-06-13T10:52:52.461Z,25.90
2017-06-13T10:55:19.925Z,25.60
2017-06-13T10:57:47.369Z,25.50
2017-06-13T11:00:14.838Z,25.50
2017-06-13T11:02:42.301Z,26.10
2017-06-13T11:05:09.757Z,26.30
2017-06-13T11:07:37.222Z,26.60
2017-06-13T11:10:04.662Z,27.00
2017-06-13T11:12:32.130Z,27.40
2017-06-13T11:14:59.581Z,27.40
2017-06-13T11:17:27.045Z,27.30
2017-06-13T11:19:54.489Z,27.20
2017-06-13T11:22:21.979Z,27.20
2017-06-13T11:24:49.429Z,27.20
2017-06-13T11:27:16.885Z,26.90
2017-06-13T11:29:44.346Z,26.70
2017-06-13T11:32:11.792Z,26.70
2017-06-13T11:34:39.253Z,27.00
2017-06-13T11:37:06.697Z,27.20
2017-06-13T11:39:34.517Z,27.10
2017-06-13T11:42:01.982Z,26.60
2017-06-13T11:44:29.440Z,26.00
2017-06-13T11:46:56.887Z,26.00
2017-06-13T11:49:24.372Z,25.80
2017-06-13T11:51:51.837Z,25.30
2017-06-13T11:54:19.311Z,25.10
2017-06-13T11:56:46.757Z,24.30
2017-06-13T11:59:14.217Z,24.50
2017-06-13T12:01:41.665Z,25.30
2017-06-13T12:04:09.137Z,25.80
2017-06-13T12:06:36.577Z,25.10
2017-06-13T12:09:04.040Z,25.40
2017-06-13T12:11:31.501Z,25.70
2017-06-13T12:13:58.958Z,25.00
2017-06-13T12:16:26.417Z,25.60
2017-06-13T12:18:53.881Z,26.70
2017-06-13T12:21:21.346Z,27.40
2017-06-13T12:23:48.809Z,27.30
2017-06-13T12:26:16.274Z,27.50
2017-06-13T12:28:43.723Z,27.60
2017-06-13T12:31:11.196Z,27.60
2017-06-13T12:33:39.537Z,29.20
2017-06-13T12:36:07.009Z,29.20
2017-06-13T12:38:34.452Z,30.20
2017-06-13T12:41:01.920Z,31.00
2017-06-13T12:43:29.392Z,31.30
2017-06-13T12:45:56.837Z,31.50
2017-06-13T12:48:24.298Z,31.80
2017-06-13T12:50:51.758Z,32.10
2017-06-13T12:53:19.222Z,32.50
2017-06-13T12:55:46.679Z,32.70
2017-06-13T12:58:14.135Z,32.90
2017-06-13T13:00:42.365Z,32.00
2017-06-13T13:03:15.777Z,32.00
2017-06-13T13:05:43.237Z,32.30
2017-06-13T13:08:10.713Z,31.20
2017-06-13T13:10:38.182Z,30.90
2017-06-13T13:13:05.625Z,30.60
2017-06-13T13:15:33.103Z,30.60
2017-06-13T13:18:00.563Z,30.20
2017-06-13T13:20:28.799Z,31.40
2017-06-13T13:22:56.259Z,31.40
2017-06-13T13:25:23.730Z,31.60
2017-06-13T13:27:51.194Z,31.40
2017-06-13T13:30:18.662Z,31.00
2017-06-13T13:32:46.877Z,30.50
2017-06-13T13:35:14.349Z,30.40
2017-06-13T13:37:41.802Z,30.70
2017-06-13T13:40:09.281Z,31.00
2017-06-13T13:42:36.733Z,30.70
2017-06-13T13:45:04.193Z,30.50
2017-06-13T13:47:31.657Z,30.40
2017-06-13T13:49:59.101Z,30.10
2017-06-13T13:52:26.570Z,30.20
2017-06-13T13:54:54.030Z,30.40
2017-06-13T13:57:21.497Z,30.30
2017-06-13T13:59:49.722Z,30.50
2017-06-13T14:02:17.189Z,30.50
2017-06-13T14:04:44.650Z,30.60
2017-06-13T14:07:12.137Z,30.80
2017-06-13T14:09:39.593Z,31.20
2017-06-13T14:12:07.053Z,31.00
2017-06-13T14:14:34.519Z,30.60
2017-06-13T14:17:01.965Z,30.20
2017-06-13T14:19:29.433Z,29.60
2017-06-13T14:21:57.666Z,29.80
2017-06-13T14:24:25.162Z,29.80
2017-06-13T14:26:52.623Z,30.30
2017-06-13T14:29:20.087Z,30.40
2017-06-13T14:31:47.551Z,30.40
2017-06-13T14:34:15.810Z,29.10
2017-06-13T14:36:43.267Z,29.10
2017-06-13T14:39:10.743Z,29.30
2017-06-13T14:41:38.194Z,30.00
2017-06-13T14:44:05.670Z,30.50
2017-06-13T14:46:33.123Z,30.70
2017-06-13T14:49:00.573Z,31.20
2017-06-13T14:51:28.038Z,31.20
2017-06-13T14:53:55.494Z,31.30
2017-06-13T14:56:22.965Z,31.20
2017-06-13T14:58:50.402Z,30.40
2017-06-13T15:01:17.873Z,30.00
2017-06-13T15:03:45.327Z,29.80
2017-06-13T15:06:12.804Z,28.60
2017-06-13T15:08:40.276Z,28.10
2017-06-13T15:11:07.767Z,28.50
2017-06-13T15:13:35.231Z,29.30
2017-06-13T15:16:05.917Z,29.80
2017-06-13T15:18:33.391Z,30.40
2017-06-13T15:21:00.847Z,31.00
2017-06-13T15:23:28.306Z,31.50
2017-06-13T15:25:55.753Z,31.70
2017-06-13T15:28:23.214Z,30.30
2017-06-13T15:30:50.673Z,29.00
2017-06-13T15:33:18.130Z,28.40
2017-06-13T15:35:45.750Z,28.40
2017-06-13T15:38:13.225Z,28.40
2017-06-13T15:40:40.679Z,28.40
2017-06-13T15:43:08.139Z,28.10
2017-06-13T15:45:35.609Z,27.90
2017-06-13T15:48:03.062Z,28.00
2017-06-13T15:50:30.538Z,28.40
2017-06-13T15:52:57.994Z,28.30
2017-06-13T15:55:25.461Z,26.90
2017-06-13T15:57:52.913Z,25.70
2017-06-13T16:00:20.373Z,25.10
2017-06-13T16:02:47.847Z,26.00
2017-06-13T16:05:15.322Z,27.30
2017-06-13T16:07:43.530Z,27.00
2017-06-13T16:10:11.005Z,27.00
2017-06-13T16:12:38.453Z,26.90
2017-06-13T16:15:05.911Z,26.70
2017-06-13T16:17:33.370Z,26.80
2017-06-13T16:20:00.835Z,27.00
2017-06-13T16:22:28.306Z,27.50
2017-06-13T16:24:55.749Z,27.90
2017-06-13T16:27:23.214Z,26.60
2017-06-13T16:29:50.665Z,26.40
2017-06-13T16:32:18.133Z,26.70
2017-06-13T16:34:45.585Z,27.30
2017-06-13T16:37:13.056Z,27.80
2017-06-13T16:39:40.512Z,27.70
2017-06-13T16:42:07.993Z,27.50
2017-06-13T16:44:35.457Z,27.60
2017-06-13T16:47:02.905Z,27.40
2017-06-13T16:49:30.369Z,27.30
2017-06-13T16:51:57.827Z,27.10
2017-06-13T16:54:25.281Z,27.00
2017-06-13T16:56:52.753Z,26.60
2017-06-13T16:59:20.231Z,26.30
2017-06-13T17:01:47.684Z,25.20
2017-06-13T17:04:15.159Z,24.10
2017-06-13T17:06:42.617Z,24.10
2017-06-13T17:09:10.090Z,24.00
2017-06-13T17:11:37.556Z,23.90
2017-06-13T17:14:05.028Z,24.00
2017-06-13T17:16:32.474Z,23.90
2017-06-13T17:18:59.921Z,23.80
2017-06-13T17:21:27.395Z,23.60
2017-06-13T17:23:55.614Z,23.60
2017-06-13T17:26:23.082Z,23.60
2017-06-13T17:28:50.533Z,23.50
2017-06-13T17:31:18.006Z,23.30
2017-06-13T17:33:45.469Z,22.80
2017-06-13T17:36:12.942Z,22.50
2017-06-13T17:38:40.389Z,22.70
2017-06-13T17:41:07.850Z,22.70
2017-06-13T17:43:35.309Z,22.60
2017-06-13T17:46:02.761Z,22.50
2017-06-13T17:48:30.221Z,22.30
2017-06-13T17:50:57.677Z,22.40
2017-06-13T17:53:25.144Z,22.50
2017-06-13T17:55:52.594Z,22.50
2017-06-13T17:58:20.065Z,22.20
2017-06-13T18:00:47.517Z,21.80
2017-06-13T18:03:15.766Z,21.70
2017-06-13T18:05:43.226Z,21.70
2017-06-13T18:08:10.678Z,21.80
2017-06-13T18:10:38.151Z,22.00
2017-06-13T18:13:05.610Z,21.80
2017-06-13T18:15:33.069Z,21.90
2017-06-13T18:18:00.522Z,22.00
2017-06-13T18:20:27.984Z,22.00
2017-06-13T18:22:55.433Z,22.00
2017-06-13T18:25:22.894Z,22.00
2017-06-13T18:27:50.357Z,21.90
2017-06-13T18:30:17.837Z,21.90
2017-06-13T18:32:46.065Z,21.70
2017-06-13T18:35:13.521Z,21.70
2017-06-13T18:37:40.985Z,21.60
2017-06-13T18:40:08.448Z,21.30
2017-06-13T18:42:35.924Z,21.10
2017-06-13T18:45:03.365Z,21.10
2017-06-13T18:47:30.825Z,21.00
2017-06-13T18:49:58.273Z,21.00
2017-06-13T18:52:25.741Z,20.90
2017-06-13T18:54:53.189Z,20.90
2017-06-13T18:57:20.661Z,20.80
2017-06-13T18:59:48.113Z,20.60
2017-06-13T19:02:15.565Z,20.40
2017-06-13T19:04:46.893Z,20.30
2017-06-13T19:07:14.341Z,20.20
2017-06-13T19:09:41.807Z,20.10
2017-06-13T19:12:09.254Z,20.00
2017-06-13T19:14:36.726Z,19.80
2017-06-13T19:17:04.182Z,19.60
2017-06-13T19:19:31.638Z,19.50
2017-06-13T19:21:59.076Z,19.30
2017-06-13T19:24:26.537Z,19.20
2017-06-13T19:26:54.005Z,19.10
2017-06-13T19:29:21.473Z,19.00
2017-06-13T19:31:48.927Z,18.90
2017-06-13T19:34:16.387Z,18.80
2017-06-13T19:36:43.845Z,18.70
2017-06-13T19:39:11.297Z,18.60
2017-06-13T19:41:38.759Z,18.50
2017-06-13T19:44:06.209Z,18.40
2017-06-13T19:46:33.674Z,18.20
2017-06-13T19:49:01.129Z,18.00
2017-06-13T19:51:28.602Z,17.90
2017-06-13T19:53:56.049Z,17.80
2017-06-13T19:56:23.518Z,17.70
2017-06-13T19:58:50.971Z,17.60
2017-06-13T20:01:18.413Z,17.40
2017-06-13T20:03:45.886Z,17.30
2017-06-13T20:06:13.339Z,17.20
2017-06-13T20:08:40.799Z,16.90
2017-06-13T20:11:08.250Z,16.90
2017-06-13T20:13:35.710Z,16.70
2017-06-13T20:16:03.165Z,16.60
2017-06-13T20:18:30.622Z,16.50
2017-06-13T20:20:58.077Z,16.30
2017-06-13T20:23:25.541Z,16.20
2017-06-13T20:25:56.979Z,16.10
2017-06-13T20:28:24.449Z,16.20
2017-06-13T20:30:51.903Z,16.20
2017-06-13T20:33:19.376Z,16.20
2017-06-13T20:35:47.581Z,15.90
2017-06-13T20:38:15.029Z,15.90
2017-06-13T20:40:42.490Z,15.90
2017-06-13T20:43:09.933Z,15.80
2017-06-13T20:45:38.162Z,15.40
2017-06-13T20:48:05.618Z,15.40
2017-06-13T20:50:33.078Z,15.10
2017-06-13T20:53:00.533Z,14.90
2017-06-13T20:55:27.993Z,14.70
2017-06-13T20:57:55.454Z,14.60
2017-06-13T21:00:22.929Z,14.50
2017-06-13T21:02:50.369Z,14.50
2017-06-13T21:05:17.821Z,14.40
2017-06-13T21:07:45.294Z,14.30
2017-06-13T21:10:12.749Z,14.20
2017-06-13T21:12:40.209Z,14.00
2017-06-13T21:15:07.662Z,13.90
2017-06-13T21:17:35.117Z,13.80
2017-06-13T21:20:02.566Z,13.70
2017-06-13T21:22:30.029Z,13.70
2017-06-13T21:24:57.483Z,13.70
2017-06-13T21:27:24.930Z,13.70
2017-06-13T21:29:52.398Z,13.80
2017-06-13T21:32:19.833Z,13.80
2017-06-13T21:34:47.292Z,13.60
2017-06-13T21:37:14.742Z,13.50
2017-06-13T21:39:42.214Z,13.50
2017-06-13T21:42:09.666Z,13.50
2017-06-13T21:44:37.137Z,13.60
2017-06-13T21:47:04.596Z,13.60
2017-06-13T21:49:32.076Z,13.60
2017-06-13T21:51:59.579Z,13.50
2017-06-13T21:54:27.029Z,13.50
2017-06-13T21:56:54.494Z,13.40
2017-06-13T21:59:21.948Z,13.30
2017-06-13T22:01:49.412Z,13.10
2017-06-13T22:04:16.857Z,13.10
2017-06-13T22:06:44.321Z,13.10
2017-06-13T22:09:11.777Z,13.10
2017-06-13T22:11:39.241Z,13.10
2017-06-13T22:14:06.698Z,13.20
2017-06-13T22:16:34.149Z,13.20
2017-06-13T22:19:01.606Z,13.30
2017-06-13T22:21:29.066Z,13.30
2017-06-13T22:23:56.517Z,13.30
2017-06-13T22:26:23.990Z,13.20
2017-06-13T22:28:51.437Z,13.20
2017-06-13T22:31:18.913Z,13.20
2017-06-13T22:33:46.371Z,13.20
2017-06-13T22:36:13.810Z,13.20
2017-06-13T22:38:41.278Z,13.20
2017-06-13T22:41:08.725Z,13.20
2017-06-13T22:43:36.197Z,13.10
2017-06-13T22:49:20.682Z,12.90
2017-06-13T22:51:48.149Z,12.80
2017-06-13T22:54:15.593Z,12.70
2017-06-13T22:56:43.051Z,12.70
2017-06-13T22:59:10.514Z,12.60
2017-06-13T23:01:37.965Z,12.60
2017-06-13T23:04:05.429Z,12.50
2017-06-13T23:06:32.878Z,12.50
2017-06-13T23:09:00.345Z,12.50
2017-06-13T23:11:27.806Z,12.50
2017-06-13T23:13:55.275Z,12.40
2017-06-13T23:16:22.716Z,12.40
2017-06-13T23:18:50.193Z,12.30
2017-06-13T23:21:18.417Z,11.90
2017-06-13T23:23:45.893Z,11.90
2017-06-13T23:26:13.345Z,11.90
2017-06-13T23:28:40.813Z,11.90
2017-06-13T23:31:08.271Z,11.80
2017-06-13T23:33:35.709Z,11.80
2017-06-13T23:36:03.177Z,11.60
2017-06-13T23:38:30.637Z,11.60
2017-06-13T23:40:58.105Z,11.60
2017-06-13T23:43:25.561Z,11.60
2017-06-13T23:45:53.033Z,11.70
2017-06-13T23:48:21.261Z,11.80
2017-06-13T23:50:48.733Z,11.80
2017-06-13T23:53:16.193Z,11.90
2017-06-13T23:55:43.657Z,11.90
2017-06-13T23:58:11.109Z,11.90
